Latest Weather Observations for Bankstown

IDN60801

Issued at 4:05 pm EDT Saturday 31 January 2015 (issued every 30 minutes, with the page automatically refreshed every 10 minutes)

About weather observations | Map of weather stations | Latest weather observations for NSW | Other Formats
Station Details ID: 066137 Name: BANKSTOWN AIRPORT AWS Lat: -33.92 Lon: 150.99 Height: 6.5 m
Data from the previous 72 hours. | See also: Recent months at Bankstown
Date/Time
EDT
Temp
°C
App
Temp
°C
Dew
Point
Rel
Hum
%
Delta-T
°C
Wind Press
QNH
hPa
Press
MSL
hPa
Rain
since 9 am
mm
Dir
 
Spd
km/h
Gust
km/h
Spd
kts
Gust
kts
31/04:00pm 25.2 20.8 7.3 32 9.5 E 20 32 11 17 1005.8 1005.8 0.0
31/03:30pm 25.3 20.6 7.9 33 9.3 ESE 22 32 12 17 1005.7 1005.7 0.0
31/03:00pm 25.6 21.1 8.6 34 9.2 ESE 22 30 12 16 1005.5 1005.5 0.0
31/02:30pm 25.7 20.5 7.3 31 9.7 ESE 24 32 13 17 1005.5 1005.5 0.0
31/02:00pm 25.9 21.5 7.5 31 9.8 ESE 20 24 11 13 1005.7 1005.7 0.0
31/01:30pm 26.8 23.6 6.8 28 10.5 WNW 13 20 7 11 1006.0 1006.0 0.0
31/01:00pm 25.7 23.4 7.3 31 9.7 SSW 9 15 5 8 1006.3 1006.3 0.0
31/12:30pm 25.0 23.2 7.2 32 9.3 E 6 9 3 5 1006.7 1006.7 0.0
31/12:00pm 24.6 21.8 6.8 32 9.3 WSW 11 13 6 7 1007.1 1007.1 0.0
31/11:30am 23.7 21.6 6.5 33 8.8 SW 7 13 4 7 1007.5 1007.5 0.0
31/11:00am 23.5 21.1 7.2 35 8.5 WNW 9 11 5 6 1007.8 1007.8 0.0
31/10:30am 22.9 21.2 7.4 37 8.1 SW 6 13 3 7 1008.1 1008.1 0.0
31/10:00am 22.8 21.2 7.8 38 7.9 SW 6 11 3 6 1008.2 1008.2 0.0
31/09:30am 21.6 20.7 7.8 41 7.2 SW 2 6 1 3 1008.3 1008.3 0.0
31/09:00am 20.2 18.3 9.2 49 5.8 WSW 9 20 5 11 1008.4 1008.4 0.0
31/08:30am 18.9 17.9 10.2 57 4.7 WSW 6 9 3 5 1008.3 1008.3 0.0
31/08:00am 17.9 18.5 13.2 74 2.7 SW 2 7 1 4 1008.4 1008.4 0.0
31/07:30am 16.6 17.8 13.7 83 1.6 CALM 0 6 0 3 1008.0 1008.0 0.0
31/07:00am 15.1 16.0 12.8 86 1.3 CALM 0 0 0 0 1007.9 1007.9 0.0
31/06:30am 14.1 14.6 11.6 85 1.3 CALM 0 0 0 0 1007.7 1007.7 0.0
31/05:30am 15.1 15.8 12.2 83 1.6 CALM 0 0 0 0 1007.1 1007.1 0.0
31/05:00am 15.7 16.6 12.8 83 1.6 CALM 0 0 0 0 1007.0 1007.0 0.0
31/04:30am 15.3 15.7 12.6 84 1.5 SW 2 6 1 3 1007.0 1007.0 0.0
31/04:00am 15.6 16.4 12.7 83 1.6 CALM 0 0 0 0 1006.8 1006.8 0.0
31/03:30am 16.1 17.1 13.2 83 1.6 CALM 0 0 0 0 1006.8 1006.8 0.0
31/02:30am 17.0 17.4 12.5 75 2.5 SSW 2 6 1 3 1006.6 1006.6 0.0
31/02:00am 17.7 18.5 12.4 71 2.9 CALM 0 6 0 3 1006.9 1006.9 0.0
31/01:30am 18.8 18.6 13.0 69 3.3 SSW 6 7 3 4 1007.2 1007.2 0.0
31/01:00am 18.8 18.5 12.8 68 3.4 SSW 6 6 3 3 1007.5 1007.5 0.0
31/12:30am 19.7 19.2 12.5 63 4.0 S 7 11 4 6 1007.7 1007.7 0.0
31/12:00am 20.0 21.1 13.5 66 3.7 CALM 0 0 0 0 1007.8 1007.8 0.0
 
Date/Time
EDT
Temp
°C
App
Temp
°C
Dew
Point
Rel
Hum
%
Delta-T
°C
Wind Press
QNH
hPa
Press
MSL
hPa
Rain
since 9 am
mm
Dir
 
Spd
km/h
Gust
km/h
Spd
kts
Gust
kts
30/11:30pm 20.0 20.6 13.2 65 3.9 SSE 2 6 1 3 1007.8 1007.8 0.0
30/11:00pm 20.2 19.9 13.2 64 4.0 S 7 9 4 5 1007.8 1007.8 0.0
30/10:30pm 20.3 19.5 13.0 63 4.1 S 9 11 5 6 1007.7 1007.7 0.0
30/10:00pm 20.9 18.9 12.8 60 4.6 SE 15 20 8 11 1007.6 1007.6 0.0
30/09:30pm 21.0 19.5 13.2 61 4.5 SE 13 19 7 10 1007.4 1007.4 0.0
30/09:00pm 21.0 19.4 12.9 60 4.6 SE 13 19 7 10 1007.0 1007.0 0.0
30/08:30pm 21.5 18.9 13.2 59 4.8 SSE 19 24 10 13 1006.6 1006.6 0.0
30/08:00pm 21.5 18.7 12.6 57 5.1 SE 19 22 10 12 1006.3 1006.3 0.0
30/07:30pm 21.8 18.1 11.5 52 5.7 SE 22 30 12 16 1006.1 1006.1 0.0
30/07:00pm 23.3 19.9 10.4 44 7.1 SE 19 24 10 13 1005.6 1005.6 0.0
30/06:30pm 23.6 19.8 9.9 42 7.5 ESE 20 28 11 15 1005.2 1005.2 0.0
30/06:00pm 24.0 18.3 8.4 37 8.3 ESE 28 37 15 20 1005.0 1005.0 0.0
30/05:30pm 25.8 20.8 3.7 24 10.9 S 19 26 10 14 1004.8 1004.8 0.0
30/05:00pm 26.4 21.8 3.6 23 11.4 SW 17 24 9 13 1004.8 1004.8 0.0
30/04:30pm 26.5 20.6 1.7 20 11.9 SW 22 35 12 19 1004.9 1004.9 0.0
30/04:00pm 26.7 20.8 1.9 20 12.0 SW 22 39 12 21 1005.1 1005.1 0.0
30/03:30pm 26.5 20.2 1.7 20 11.9 WSW 24 37 13 20 1005.3 1005.3 0.0
30/03:00pm 25.6 19.5 2.9 23 11.1 SW 24 39 13 21 1005.6 1005.6 0.0
30/02:30pm 25.9 20.1 4.4 25 10.8 SW 24 44 13 24 1006.0 1006.0 0.0
30/02:03pm 25.1 18.5 4.3 26 10.4 SW 28 48 15 26 1006.5 1006.5 0.0
30/02:00pm 25.0 19.2 4.2 26 10.4 SW 24 48 13 26 1006.5 1006.5 0.0
30/01:30pm 24.7 19.4 5.0 28 9.9 SW 22 37 12 20 1007.0 1007.0 0.0
30/01:00pm 24.8 19.8 6.5 31 9.5 SW 22 33 12 18 1007.3 1007.3 0.0
30/12:30pm 24.1 18.1 5.5 30 9.4 WSW 26 39 14 21 1007.5 1007.5 0.0
30/12:00pm 23.7 19.1 6.5 33 8.9 SW 20 33 11 18 1007.9 1007.9 0.0
30/11:30am 22.8 18.5 7.0 36 8.2 SW 19 30 10 16 1008.6 1008.6 0.0
30/11:00am 22.5 19.5 7.5 38 7.8 WSW 13 24 7 13 1008.8 1008.8 0.0
30/10:30am 21.0 16.8 5.8 37 7.6 SW 17 28 9 15 1009.1 1009.1 0.0
30/10:00am 20.3 16.0 7.0 42 6.8 WSW 19 26 10 14 1009.5 1009.5 0.0
30/09:30am 19.6 15.5 6.0 41 6.7 SW 17 24 9 13 1009.7 1009.7 0.0
30/09:00am 18.7 14.5 5.9 43 6.3 WSW 17 24 9 13 1009.9 1009.9 0.0
30/08:30am 18.1 14.5 6.9 48 5.6 WSW 15 20 8 11 1009.9 1009.9 0.0
30/08:00am 17.2 13.7 7.3 52 5.0 W 15 19 8 10 1009.9 1009.9 0.0
30/07:30am 15.6 13.8 9.3 66 3.2 W 9 13 5 7 1009.8 1009.8 0.0
30/07:00am 13.5 12.4 10.5 82 1.6 NNW 7 9 4 5 1009.7 1009.7 0.0
30/06:30am 11.9 11.8 9.6 86 1.2 CALM 0 0 0 0 1009.5 1009.5 0.0
30/06:00am 11.6 11.4 9.0 84 1.3 CALM 0 0 0 0 1009.3 1009.3 0.0
30/05:30am 12.0 11.8 9.2 83 1.4 CALM 0 0 0 0 1009.3 1009.3 0.0
30/05:00am 12.0 11.7 8.5 79 1.7 CALM 0 0 0 0 1009.2 1009.2 0.0
30/04:30am 13.9 14.1 10.5 80 1.8 CALM 0 0 0 0 1009.2 1009.2 0.0
30/04:00am 12.8 12.8 9.8 82 1.5 CALM 0 0 0 0 1009.3 1009.3 0.0
30/03:30am 13.0 12.9 9.6 80 1.7 CALM 0 0 0 0 1009.6 1009.6 0.0
30/03:00am 13.4 13.0 9.6 78 1.9 SSW 2 6 1 3 1009.8 1009.8 0.0
30/02:30am 14.9 13.6 9.3 69 2.9 SW 6 9 3 5 1010.1 1010.1 0.0
30/02:00am 15.1 13.6 9.0 67 3.1 WSW 7 11 4 6 1010.4 1010.4 0.0
30/01:30am 15.8 13.9 9.2 65 3.4 WSW 9 11 5 6 1010.7 1010.7 0.0
30/01:00am 15.7 13.9 9.4 66 3.3 WSW 9 11 5 6 1010.9 1010.9 0.0
30/12:30am 15.7 13.9 9.6 67 3.2 W 9 13 5 7 1011.2 1011.2 0.0
30/12:00am 16.2 14.9 10.1 67 3.2 WSW 7 11 4 6 1011.5 1011.5 0.0
 
Date/Time
EDT
Temp
°C
App
Temp
°C
Dew
Point
Rel
Hum
%
Delta-T
°C
Wind Press
QNH
hPa
Press
MSL
hPa
Rain
since 9 am
mm
Dir
 
Spd
km/h
Gust
km/h
Spd
kts
Gust
kts
29/11:30pm 16.5 15.2 10.1 66 3.4 WSW 7 11 4 6 1011.8 1011.8 0.0
29/11:00pm 16.6 15.3 9.8 64 3.6 SW 7 9 4 5 1012.0 1012.0 0.0
29/10:30pm 16.7 14.6 9.6 63 3.7 SSW 11 13 6 7 1012.1 1012.1 0.0
29/10:00pm 17.4 14.8 9.3 59 4.2 SSW 13 17 7 9 1012.1 1012.1 0.0
29/09:30pm 17.8 15.2 9.4 58 4.4 S 13 19 7 10 1011.9 1011.9 0.0
29/09:00pm 18.4 15.1 9.7 57 4.6 SSW 17 20 9 11 1011.8 1011.8 0.0
29/08:30pm 18.7 15.1 10.0 57 4.6 S 19 24 10 13 1011.5 1011.5 0.0
29/08:00pm 19.5 14.8 9.4 52 5.3 S 24 39 13 21 1011.2 1011.2 0.0
29/07:30pm 20.1 14.6 9.1 49 5.8 SSE 28 41 15 22 1010.8 1010.8 0.0
29/07:01pm 20.9 14.1 9.2 47 6.2 SSE 35 54 19 29 1010.5 1010.5 0.0
29/07:00pm 20.9 13.6 8.9 46 6.3 SSE 37 54 20 29 1010.5 1010.5 0.0
29/06:52pm 21.1 14.7 8.4 44 6.7 SSE 32 54 17 29 1010.4 1010.4 0.0
29/06:30pm 21.5 14.9 8.4 43 6.9 SE 33 41 18 22 1010.2 1010.2 0.0
29/06:00pm 22.3 16.2 8.4 41 7.3 SSE 30 39 16 21 1009.9 1009.9 0.0
29/05:30pm 22.6 15.9 8.3 40 7.5 SE 33 44 18 24 1010.0 1010.0 0.0
29/05:00pm 23.2 17.2 8.5 39 7.8 SSE 30 41 16 22 1010.1 1010.1 0.0
29/04:30pm 23.5 17.8 8.4 38 8.0 SSE 28 39 15 21 1010.1 1010.1 0.0
29/04:00pm 23.7 18.9 8.9 39 8.0 SSE 24 41 13 22 1010.3 1010.3 0.0
29/03:30pm 23.5 18.2 8.4 38 8.0 SSE 26 39 14 21 1010.6 1010.6 0.0
29/03:00pm 22.2 17.2 8.0 40 7.4 SSE 24 39 13 21 1010.9 1010.9 0.0
29/02:30pm 22.7 18.0 7.7 38 7.8 SSE 22 30 12 16 1011.1 1011.1 0.0
29/02:00pm 22.6 16.9 5.1 32 8.7 SSW 24 37 13 20 1011.4 1011.4 0.0
29/01:30pm 22.3 17.0 4.8 32 8.6 SSW 22 35 12 19 1011.6 1011.6 0.0
29/01:00pm 22.3 17.2 6.1 35 8.2 S 22 39 12 21 1011.9 1011.9 0.0
29/12:30pm 23.3 18.8 7.0 35 8.4 SSW 20 30 11 16 1012.1 1012.1 0.0
29/12:00pm 21.9 17.8 7.7 40 7.4 SW 19 30 10 16 1012.3 1012.3 0.0
29/11:30am 22.1 16.8 6.7 37 7.9 S 24 35 13 19 1012.6 1012.6 0.0
29/11:00am 21.0 15.6 6.2 38 7.4 SW 24 32 13 17 1012.9 1012.9 0.0
29/10:37am 21.1 15.1 7.0 40 7.2 SSW 28 46 15 25 1013.0 1013.0 0.0
29/10:30am 20.8 15.5 6.7 40 7.1 SSW 24 39 13 21 1013.0 1013.0 0.0
29/10:00am 20.4 16.4 8.1 45 6.4 SW 19 28 10 15 1013.2 1013.2 0.0
29/09:30am 19.1 14.8 7.8 48 5.8 SW 20 26 11 14 1013.3 1013.3 0.0
29/09:00am 18.4 14.1 7.8 50 5.4 SW 20 28 11 15 1013.3 1013.3 15.2
29/08:30am 18.0 14.1 8.6 54 4.9 SW 19 26 10 14 1013.3 1013.3 15.2
29/08:00am 17.2 14.1 8.9 58 4.3 SW 15 26 8 14 1013.2 1013.2 15.2
29/07:30am 16.2 13.5 8.9 62 3.7 SW 13 22 7 12 1013.1 1013.1 15.2
29/07:00am 15.6 13.0 9.5 67 3.2 SW 13 19 7 10 1012.9 1012.9 15.2
29/06:30am 15.3 13.2 9.9 70 2.8 SW 11 19 6 10 1012.7 1012.7 15.2
29/06:00am 15.1 13.5 10.1 72 2.6 SW 9 13 5 7 1012.2 1012.2 15.2
29/05:30am 15.2 13.7 10.4 73 2.5 SSW 9 17 5 9 1012.0 1012.0 15.2
29/05:00am 15.0 13.1 10.4 74 2.4 WSW 11 17 6 9 1011.9 1011.9 15.2
29/04:30am 14.7 12.8 10.5 76 2.2 SW 11 17 6 9 1012.0 1012.0 15.2
29/04:00am 15.0 12.7 10.6 75 2.3 SW 13 19 7 10 1012.2 1012.2 15.2
29/03:30am 15.3 13.1 10.9 75 2.3 WSW 13 17 7 9 1012.3 1012.3 15.2
29/03:00am 15.1 13.3 10.7 75 2.3 WSW 11 15 6 8 1012.6 1012.6 15.2
29/02:30am 15.2 13.3 10.6 74 2.4 WSW 11 15 6 8 1012.7 1012.7 15.2
29/02:00am 15.8 13.2 10.8 72 2.7 SW 15 22 8 12 1013.1 1013.1 15.2
29/01:30am 15.5 14.5 10.9 74 2.4 WSW 7 11 4 6 1013.5 1013.5 15.2
29/01:00am 15.8 14.4 10.8 72 2.7 SW 9 13 5 7 1013.5 1013.5 15.2
29/12:30am 16.3 14.2 11.2 72 2.7 SW 13 19 7 10 1013.6 1013.6 15.2
29/12:00am 16.5 14.4 11.2 71 2.9 SW 13 17 7 9 1013.7 1013.7 15.2
 
Date/Time
EDT
Temp
°C
App
Temp
°C
Dew
Point
Rel
Hum
%
Delta-T
°C
Wind Press
QNH
hPa
Press
MSL
hPa
Rain
since 9 am
mm
Dir
 
Spd
km/h
Gust
km/h
Spd
kts
Gust
kts
28/11:30pm 16.5 14.8 11.2 71 2.9 SW 11 17 6 9 1013.8 1013.8 15.2
28/11:00pm 16.8 14.7 11.3 70 3.0 SW 13 17 7 9 1013.9 1013.9 15.2
28/10:30pm 16.9 14.8 11.2 69 3.1 SW 13 17 7 9 1014.2 1014.2 15.2
28/10:00pm 17.3 15.6 11.3 68 3.2 SW 11 13 6 7 1014.2 1014.2 15.2
28/09:30pm 17.4 15.5 11.7 69 3.1 SSW 13 17 7 9 1014.1 1014.1 15.2
28/09:00pm 17.7 15.4 11.7 68 3.3 SSW 15 19 8 10 1014.0 1014.0 15.2
28/08:30pm 18.7 16.1 12.0 65 3.7 S 17 22 9 12 1014.0 1014.0 15.2
28/08:00pm 19.2 17.4 12.2 64 3.9 S 13 17 7 9 1013.8 1013.8 15.2
28/07:30pm 19.9 17.9 12.7 63 4.1 S 15 20 8 11 1013.7 1013.7 15.2
28/07:00pm 20.5 17.5 12.5 60 4.5 S 20 26 11 14 1013.3 1013.3 15.2
28/06:30pm 20.3 17.7 13.7 66 3.8 S 20 28 11 15 1013.3 1013.3 15.2
28/06:00pm 20.0 16.4 13.2 65 3.9 S 24 35 13 19 1013.2 1013.2 15.2
28/05:30pm 20.0 17.5 14.1 69 3.4 SSE 20 32 11 17 1013.2 1013.2 15.2
28/05:00pm 19.3 15.6 13.9 71 3.1 SSE 26 39 14 21 1013.4 1013.4 15.2
28/04:30pm 19.4 16.6 13.3 68 3.5 SSE 20 28 11 15 1013.4 1013.4 15.2

Other Formats:

Comma delimited format used in spreadsheet applications
http://www.bom.gov.au/fwo/IDN60801/IDN60801.94765.axf

JavaScript Object Notation format (JSON) in row-major order
http://www.bom.gov.au/fwo/IDN60801/IDN60801.94765.json